createdAt,value
2018-05-09T00:00:15.576Z,19.91
2018-05-09T00:01:15.560Z,19.91
2018-05-09T00:02:15.576Z,19.92
2018-05-09T00:03:15.585Z,19.93
2018-05-09T00:04:15.549Z,19.93
2018-05-09T00:05:15.605Z,19.92
2018-05-09T00:06:15.949Z,19.93
2018-05-09T00:07:15.555Z,19.94
2018-05-09T00:08:15.625Z,19.96
2018-05-09T00:09:15.910Z,19.96
2018-05-09T00:10:15.591Z,19.97
2018-05-09T00:11:15.561Z,19.97
2018-05-09T00:12:15.555Z,19.97
2018-05-09T00:13:15.576Z,19.97
2018-05-09T00:14:15.678Z,19.97
2018-05-09T00:15:15.563Z,19.97
2018-05-09T00:16:16.009Z,19.94
2018-05-09T00:17:15.705Z,19.92
2018-05-09T00:18:15.583Z,19.92
2018-05-09T00:19:15.572Z,19.93
2018-05-09T00:20:15.550Z,19.96
2018-05-09T00:21:15.565Z,19.93
2018-05-09T00:22:15.566Z,19.95
2018-05-09T00:23:15.616Z,19.93
2018-05-09T00:24:15.560Z,19.93
2018-05-09T00:25:15.545Z,19.93
2018-05-09T00:26:15.594Z,19.92
2018-05-09T00:27:15.576Z,19.92
2018-05-09T00:28:15.568Z,19.91
2018-05-09T00:29:15.585Z,19.91
2018-05-09T00:30:15.591Z,19.93
2018-05-09T00:31:15.787Z,19.96
2018-05-09T00:32:15.559Z,19.93
2018-05-09T00:33:15.603Z,19.9
2018-05-09T00:34:15.592Z,19.9
2018-05-09T00:35:15.572Z,19.91
2018-05-09T00:36:15.550Z,19.9
2018-05-09T00:37:15.554Z,19.9
2018-05-09T00:38:15.596Z,19.92
2018-05-09T00:39:15.584Z,19.92
2018-05-09T00:40:15.572Z,19.93
2018-05-09T00:41:15.563Z,19.94
2018-05-09T00:42:15.583Z,19.93
2018-05-09T00:43:15.691Z,19.92
2018-05-09T00:44:15.629Z,19.9
2018-05-09T00:45:15.627Z,19.9
2018-05-09T00:46:15.600Z,19.91
2018-05-09T00:47:15.600Z,19.91
2018-05-09T00:48:15.894Z,19.9
2018-05-09T00:49:15.600Z,19.91
2018-05-09T00:50:16.424Z,19.87
2018-05-09T00:51:15.574Z,19.9
2018-05-09T00:52:15.600Z,19.88
2018-05-09T00:53:15.976Z,19.89
2018-05-09T00:54:15.756Z,19.91
2018-05-09T00:55:15.654Z,19.91
2018-05-09T00:56:15.625Z,19.87
2018-05-09T00:57:15.550Z,19.83
2018-05-09T00:58:15.595Z,19.82
2018-05-09T00:59:15.639Z,19.8
2018-05-09T01:00:15.594Z,19.79
2018-05-09T01:01:15.610Z,19.79
2018-05-09T01:02:15.631Z,19.78
2018-05-09T01:03:15.648Z,19.78
2018-05-09T01:04:15.618Z,19.75
2018-05-09T01:05:15.645Z,19.77
2018-05-09T01:06:15.635Z,19.78
2018-05-09T01:07:15.612Z,19.78
2018-05-09T01:08:15.621Z,19.75
2018-05-09T01:09:15.608Z,19.71
2018-05-09T01:10:15.645Z,19.71
2018-05-09T01:11:15.641Z,19.69
2018-05-09T01:12:15.648Z,19.69
2018-05-09T01:13:15.648Z,19.72
2018-05-09T01:14:15.590Z,19.69
2018-05-09T01:15:15.690Z,19.71
2018-05-09T01:16:15.692Z,19.69
2018-05-09T01:17:15.617Z,19.68
2018-05-09T01:18:15.672Z,19.67
2018-05-09T01:19:15.700Z,19.67
2018-05-09T01:20:15.622Z,19.65
2018-05-09T01:21:15.622Z,19.65
2018-05-09T01:22:15.617Z,19.64
2018-05-09T01:23:15.733Z,19.65
2018-05-09T01:24:15.639Z,19.65
2018-05-09T01:25:15.662Z,19.64
2018-05-09T01:26:16.043Z,19.65
2018-05-09T01:27:15.620Z,19.64
2018-05-09T01:28:15.706Z,19.61
2018-05-09T01:29:15.652Z,19.6
2018-05-09T01:30:15.609Z,19.59
2018-05-09T01:31:15.612Z,19.6
2018-05-09T01:32:15.758Z,19.6
2018-05-09T01:33:15.671Z,19.59
2018-05-09T01:34:15.652Z,19.57
2018-05-09T01:35:15.651Z,19.56
2018-05-09T01:36:15.789Z,19.56
2018-05-09T01:37:15.663Z,19.56
2018-05-09T01:38:15.713Z,19.56
2018-05-09T01:39:15.665Z,19.57
2018-05-09T01:40:15.678Z,19.53
2018-05-09T01:41:15.658Z,19.51
2018-05-09T01:42:15.725Z,19.53
2018-05-09T01:43:15.664Z,19.51
2018-05-09T01:44:15.671Z,19.52
2018-05-09T01:45:15.653Z,19.51
2018-05-09T01:46:15.664Z,19.48
2018-05-09T01:47:15.674Z,19.47
2018-05-09T01:48:15.695Z,19.47
2018-05-09T01:49:15.819Z,19.45
2018-05-09T01:50:15.783Z,19.45
2018-05-09T01:51:15.719Z,19.42
2018-05-09T01:52:15.659Z,19.42
2018-05-09T01:53:15.912Z,19.42
2018-05-09T01:54:15.681Z,19.44
2018-05-09T01:55:15.726Z,19.45
2018-05-09T01:56:15.686Z,19.45
2018-05-09T01:57:15.744Z,19.43
2018-05-09T01:58:15.630Z,19.46
2018-05-09T01:59:15.644Z,19.44
2018-05-09T02:00:15.657Z,19.45
2018-05-09T02:01:15.655Z,19.48
2018-05-09T02:02:15.672Z,19.44
2018-05-09T02:03:15.681Z,19.43
2018-05-09T02:04:15.717Z,19.41
2018-05-09T02:05:15.701Z,19.41
2018-05-09T02:06:15.628Z,19.42
2018-05-09T02:07:15.696Z,19.41
2018-05-09T02:08:15.661Z,19.42
2018-05-09T02:09:15.647Z,19.41
2018-05-09T02:10:15.690Z,19.41
2018-05-09T02:11:15.758Z,19.4
2018-05-09T02:12:15.648Z,19.39
2018-05-09T02:13:15.636Z,19.36
2018-05-09T02:14:15.684Z,19.36
2018-05-09T02:15:16.231Z,19.33
2018-05-09T02:16:15.664Z,19.31
2018-05-09T02:17:15.670Z,19.28
2018-05-09T02:18:15.648Z,19.27
2018-05-09T02:19:15.759Z,19.26
2018-05-09T02:20:15.837Z,19.23
2018-05-09T02:21:15.837Z,19.22
2018-05-09T02:22:15.676Z,19.24
2018-05-09T02:23:15.717Z,19.19
2018-05-09T02:24:15.660Z,19.2
2018-05-09T02:25:15.668Z,19.16
2018-05-09T02:26:15.658Z,19.17
2018-05-09T02:27:15.666Z,19.18
2018-05-09T02:28:15.645Z,19.16
2018-05-09T02:29:15.698Z,19.13
2018-05-09T02:30:15.761Z,19.1
2018-05-09T02:31:17.931Z,19.11
2018-05-09T02:32:15.798Z,19.1
2018-05-09T02:33:15.779Z,19.1
2018-05-09T02:34:15.703Z,19.09
2018-05-09T02:35:15.751Z,19.05
2018-05-09T02:36:15.762Z,19.05
2018-05-09T02:37:15.736Z,19.06
2018-05-09T02:38:15.737Z,19.08
2018-05-09T02:39:15.739Z,19.03
2018-05-09T02:40:15.764Z,19
2018-05-09T02:41:15.759Z,18.98
2018-05-09T02:42:15.730Z,18.95
2018-05-09T02:43:16.411Z,18.96
2018-05-09T02:44:15.729Z,18.91
2018-05-09T02:45:15.830Z,18.92
2018-05-09T02:46:15.764Z,18.92
2018-05-09T02:47:15.883Z,18.86
2018-05-09T02:48:15.740Z,18.85
2018-05-09T02:49:15.836Z,18.83
2018-05-09T02:50:15.878Z,18.85
2018-05-09T02:51:15.909Z,18.85
2018-05-09T02:52:15.750Z,18.84
2018-05-09T02:53:15.735Z,18.84
2018-05-09T02:54:15.801Z,18.86
2018-05-09T02:55:15.921Z,18.86
2018-05-09T02:56:15.884Z,18.82
2018-05-09T02:57:15.865Z,18.78
2018-05-09T02:58:15.952Z,18.81
2018-05-09T02:59:15.743Z,18.78
2018-05-09T03:00:15.835Z,18.8
2018-05-09T03:01:15.768Z,18.76
2018-05-09T03:02:15.806Z,18.75
2018-05-09T03:03:15.749Z,18.73
2018-05-09T03:04:15.768Z,18.76
2018-05-09T03:05:15.740Z,18.75
2018-05-09T03:06:15.800Z,18.76
2018-05-09T03:07:15.805Z,18.73
2018-05-09T03:08:15.769Z,18.76
2018-05-09T03:09:15.860Z,18.74
2018-05-09T03:10:15.888Z,18.7
2018-05-09T03:11:15.782Z,18.7
2018-05-09T03:12:15.772Z,18.69
2018-05-09T03:13:15.786Z,18.66
2018-05-09T03:14:15.764Z,18.67
2018-05-09T03:15:15.850Z,18.69
2018-05-09T03:16:15.790Z,18.69
2018-05-09T03:17:15.938Z,18.65
2018-05-09T03:18:15.829Z,18.65
2018-05-09T03:19:15.947Z,18.63
2018-05-09T03:20:15.836Z,18.64
2018-05-09T03:21:15.732Z,18.61
2018-05-09T03:22:15.730Z,18.63
2018-05-09T03:23:15.840Z,18.65
2018-05-09T03:24:15.736Z,18.63
2018-05-09T03:25:15.734Z,18.64
2018-05-09T03:26:15.720Z,18.64
2018-05-09T03:27:15.785Z,18.61
2018-05-09T03:28:15.752Z,18.61
2018-05-09T03:29:15.802Z,18.59
2018-05-09T03:30:15.793Z,18.58
2018-05-09T03:31:15.848Z,18.57
2018-05-09T03:32:15.724Z,18.53
2018-05-09T03:33:15.863Z,18.53
2018-05-09T03:34:15.815Z,18.52
2018-05-09T03:35:15.737Z,18.5
2018-05-09T03:36:15.765Z,18.54
2018-05-09T03:37:15.773Z,18.53
2018-05-09T03:38:15.747Z,18.49
2018-05-09T03:39:15.791Z,18.51
2018-05-09T03:40:15.804Z,18.44
2018-05-09T03:41:15.743Z,18.46
2018-05-09T03:42:15.769Z,18.45
2018-05-09T03:43:15.776Z,18.46
2018-05-09T03:44:15.851Z,18.44
2018-05-09T03:45:15.974Z,18.44
2018-05-09T03:46:15.897Z,18.43
2018-05-09T03:47:15.767Z,18.41
2018-05-09T03:48:15.828Z,18.39
2018-05-09T03:49:15.944Z,18.4
2018-05-09T03:50:15.834Z,18.41
2018-05-09T03:51:15.854Z,18.35
2018-05-09T03:52:15.884Z,18.34
2018-05-09T03:53:16.402Z,18.32
2018-05-09T03:54:15.952Z,18.31
2018-05-09T03:55:15.799Z,18.31
2018-05-09T03:56:15.840Z,18.31
2018-05-09T03:57:15.886Z,18.31
2018-05-09T03:58:15.791Z,18.31
2018-05-09T03:59:15.798Z,18.28
2018-05-09T04:00:15.858Z,18.29
2018-05-09T04:01:15.907Z,18.29
2018-05-09T04:02:15.762Z,18.29
2018-05-09T04:03:15.920Z,18.27
2018-05-09T04:04:15.815Z,18.27
2018-05-09T04:05:15.942Z,18.26
2018-05-09T04:06:15.925Z,18.26
2018-05-09T04:07:15.787Z,18.25
2018-05-09T04:08:15.889Z,18.23
2018-05-09T04:09:15.789Z,18.24
2018-05-09T04:10:15.790Z,18.2
2018-05-09T04:11:15.757Z,18.19
2018-05-09T04:12:16.111Z,18.2
2018-05-09T04:13:16.745Z,18.19
2018-05-09T04:14:15.783Z,18.19
2018-05-09T04:15:15.844Z,18.14
2018-05-09T04:16:15.758Z,18.15
2018-05-09T04:17:15.736Z,18.14
2018-05-09T04:18:15.805Z,18.12
2018-05-09T04:19:15.797Z,18.12
2018-05-09T04:20:15.786Z,18.12
2018-05-09T04:21:15.928Z,18.1
2018-05-09T04:22:15.870Z,18.11
2018-05-09T04:23:15.959Z,18.1
2018-05-09T04:24:15.891Z,18.09
2018-05-09T04:25:15.854Z,18.08
2018-05-09T04:26:15.741Z,18.08
2018-05-09T04:27:15.915Z,18.05
2018-05-09T04:28:17.077Z,18.06
2018-05-09T04:29:15.795Z,18.02
2018-05-09T04:30:15.822Z,18.02
2018-05-09T04:31:15.806Z,18.02
2018-05-09T04:32:15.800Z,17.98
2018-05-09T04:33:15.782Z,18
2018-05-09T04:34:15.817Z,17.99
2018-05-09T04:35:15.787Z,18
2018-05-09T04:36:16.314Z,17.97
2018-05-09T04:37:15.827Z,17.95
2018-05-09T04:38:15.824Z,17.96
2018-05-09T04:39:15.827Z,17.95
2018-05-09T04:40:15.850Z,17.95
2018-05-09T04:41:15.943Z,17.93
2018-05-09T04:42:15.853Z,17.91
2018-05-09T04:43:15.784Z,17.93
2018-05-09T04:44:15.871Z,17.93
2018-05-09T04:45:15.852Z,17.9
2018-05-09T04:46:15.801Z,17.93
2018-05-09T04:47:15.896Z,17.93
2018-05-09T04:48:15.796Z,17.9
2018-05-09T04:49:16.623Z,17.9
2018-05-09T04:50:15.828Z,17.93
2018-05-09T04:51:15.824Z,17.94
2018-05-09T04:52:15.771Z,17.94
2018-05-09T04:53:15.827Z,17.95
2018-05-09T04:54:15.823Z,17.95
2018-05-09T04:55:15.911Z,17.95
2018-05-09T04:56:15.708Z,17.98
2018-05-09T04:57:15.731Z,17.99
2018-05-09T04:58:15.777Z,17.96
2018-05-09T04:59:15.880Z,17.97
2018-05-09T05:00:15.787Z,17.97
2018-05-09T05:01:15.719Z,17.98
2018-05-09T05:02:15.755Z,18.02
2018-05-09T05:03:15.747Z,18
2018-05-09T05:04:15.729Z,17.88
2018-05-09T05:05:15.783Z,17.9
2018-05-09T05:06:15.857Z,17.83
2018-05-09T05:07:15.767Z,17.7
2018-05-09T05:08:15.917Z,17.5
2018-05-09T05:09:15.785Z,17.51
2018-05-09T05:10:15.825Z,17.47
2018-05-09T05:11:15.762Z,17.49
2018-05-09T05:12:15.746Z,17.45
2018-05-09T05:13:15.745Z,17.29
2018-05-09T05:14:16.674Z,17.31
2018-05-09T05:15:15.878Z,17.39
2018-05-09T05:16:15.802Z,17.41
2018-05-09T05:17:15.780Z,17.41
2018-05-09T05:18:15.775Z,17.35
2018-05-09T05:19:15.847Z,17.41
2018-05-09T05:20:15.786Z,17.44
2018-05-09T05:21:15.821Z,17.47
2018-05-09T05:22:15.945Z,17.49
2018-05-09T05:23:15.735Z,17.54
2018-05-09T05:24:15.834Z,17.57
2018-05-09T05:25:15.752Z,17.61
2018-05-09T05:26:15.761Z,17.66
2018-05-09T05:27:15.842Z,17.67
2018-05-09T05:28:15.786Z,17.71
2018-05-09T05:29:15.738Z,17.65
2018-05-09T05:30:15.742Z,17.62
2018-05-09T05:31:15.714Z,17.65
2018-05-09T05:32:15.770Z,17.67
2018-05-09T05:33:15.778Z,17.67
2018-05-09T05:34:15.755Z,17.65
2018-05-09T05:35:15.776Z,17.62
2018-05-09T05:36:15.753Z,17.64
2018-05-09T05:37:15.833Z,17.67
2018-05-09T05:38:16.183Z,17.69
2018-05-09T05:39:15.773Z,17.71
2018-05-09T05:40:15.748Z,17.76
2018-05-09T05:41:15.758Z,17.76
2018-05-09T05:42:15.758Z,17.76
2018-05-09T05:43:15.812Z,17.8
2018-05-09T05:44:15.786Z,17.83
2018-05-09T05:45:18.064Z,17.87
2018-05-09T05:46:15.774Z,17.88
2018-05-09T05:47:15.800Z,17.9
2018-05-09T05:48:15.810Z,17.94
2018-05-09T05:49:15.925Z,18
2018-05-09T05:50:15.828Z,18
2018-05-09T05:51:15.759Z,18.05
2018-05-09T05:52:15.761Z,18.05
2018-05-09T05:53:15.737Z,18.06
2018-05-09T05:54:15.766Z,18.1
2018-05-09T05:55:15.817Z,18.09
2018-05-09T05:56:15.762Z,18.13
2018-05-09T05:57:15.788Z,18.14
2018-05-09T05:58:15.809Z,18.13
2018-05-09T05:59:15.800Z,18.15
2018-05-09T06:00:15.818Z,18.15
2018-05-09T06:01:15.800Z,18.18
2018-05-09T06:02:15.738Z,18.18
2018-05-09T06:03:15.907Z,18.19
2018-05-09T06:04:15.735Z,18.23
2018-05-09T06:05:15.782Z,18.24
2018-05-09T06:06:15.770Z,18.22
2018-05-09T06:07:15.795Z,18.26
2018-05-09T06:08:15.889Z,18.24
2018-05-09T06:09:15.873Z,18.26
2018-05-09T06:10:15.781Z,18.25
2018-05-09T06:11:15.838Z,18.26
2018-05-09T06:12:15.790Z,18.24
2018-05-09T06:13:15.777Z,18.25
2018-05-09T06:14:15.803Z,18.26
2018-05-09T06:15:15.812Z,18.27
2018-05-09T06:16:15.932Z,18.31
2018-05-09T06:17:16.466Z,18.32
2018-05-09T06:18:15.808Z,18.32
2018-05-09T06:19:15.775Z,18.32
2018-05-09T06:20:15.829Z,18.33
2018-05-09T06:21:15.797Z,18.35
2018-05-09T06:22:15.770Z,18.37
2018-05-09T06:23:15.791Z,18.38
2018-05-09T06:24:16.503Z,18.39
2018-05-09T06:25:15.802Z,18.42
2018-05-09T06:26:15.831Z,18.41
2018-05-09T06:27:15.775Z,18.45
2018-05-09T06:28:15.843Z,18.48
2018-05-09T06:29:15.798Z,18.47
2018-05-09T06:30:15.788Z,18.5
2018-05-09T06:31:15.822Z,18.5
2018-05-09T06:32:15.806Z,18.51
2018-05-09T06:33:15.776Z,18.53
2018-05-09T06:34:15.783Z,18.54
2018-05-09T06:35:15.809Z,18.57
2018-05-09T06:36:15.838Z,18.61
2018-05-09T06:37:15.775Z,18.65
2018-05-09T06:38:15.772Z,18.67
2018-05-09T06:39:15.775Z,18.69
2018-05-09T06:40:15.786Z,18.7
2018-05-09T06:41:15.797Z,18.75
2018-05-09T06:42:15.892Z,18.77
2018-05-09T06:43:16.001Z,18.81
2018-05-09T06:44:15.767Z,18.81
2018-05-09T06:45:15.849Z,18.73
2018-05-09T06:46:15.835Z,18.72
2018-05-09T06:47:15.851Z,18.74
2018-05-09T06:48:15.808Z,18.79
2018-05-09T06:49:15.818Z,18.85
2018-05-09T06:50:15.820Z,18.87
2018-05-09T06:51:15.776Z,18.87
2018-05-09T06:52:15.796Z,18.92
2018-05-09T06:53:15.878Z,18.96
2018-05-09T06:54:15.807Z,19.01
2018-05-09T06:55:15.780Z,19.07
2018-05-09T06:56:15.767Z,19.11
2018-05-09T06:57:15.874Z,19.17
2018-05-09T06:58:16.018Z,19.19
2018-05-09T06:59:15.841Z,19.21
2018-05-09T07:00:15.786Z,19.23
2018-05-09T07:01:15.801Z,19.25
2018-05-09T07:02:15.794Z,19.29
2018-05-09T07:03:15.799Z,19.32
2018-05-09T07:04:15.817Z,19.36
2018-05-09T07:05:15.822Z,19.42
2018-05-09T07:06:17.376Z,19.46
2018-05-09T07:07:15.780Z,19.51
2018-05-09T07:08:15.787Z,19.56
2018-05-09T07:09:15.817Z,19.58
2018-05-09T07:10:15.796Z,19.63
2018-05-09T07:11:15.789Z,19.68
2018-05-09T07:12:15.804Z,19.69
2018-05-09T07:13:15.822Z,19.72
2018-05-09T07:14:15.806Z,19.78
2018-05-09T07:15:15.834Z,19.81
2018-05-09T07:16:15.904Z,19.85
2018-05-09T07:17:15.790Z,19.87
2018-05-09T07:18:16.017Z,19.92
2018-05-09T07:19:15.822Z,19.92
2018-05-09T07:20:15.798Z,19.97
2018-05-09T07:21:15.849Z,20
2018-05-09T07:22:16.643Z,20.02
2018-05-09T07:23:16.660Z,20.04
2018-05-09T07:24:16.104Z,20.01
2018-05-09T07:25:15.800Z,20.04
2018-05-09T07:26:15.825Z,20.07
2018-05-09T07:27:15.812Z,20.08
2018-05-09T07:28:15.949Z,20.1
2018-05-09T07:29:15.918Z,20.12
2018-05-09T07:30:16.447Z,20.12
2018-05-09T07:31:15.834Z,20.19
2018-05-09T07:32:15.842Z,20.23
2018-05-09T07:33:15.859Z,20.26
2018-05-09T07:34:15.801Z,20.3
2018-05-09T07:35:15.832Z,20.32
2018-05-09T07:36:15.815Z,20.36
2018-05-09T07:37:16.149Z,20.39
2018-05-09T07:38:15.840Z,20.39
2018-05-09T07:39:15.832Z,20.41
2018-05-09T07:40:15.953Z,20.42
2018-05-09T07:41:15.833Z,20.43
2018-05-09T07:42:16.563Z,20.46
2018-05-09T07:43:15.864Z,20.51
2018-05-09T07:44:15.868Z,20.53
2018-05-09T07:45:15.909Z,20.55
2018-05-09T07:46:15.866Z,20.56
2018-05-09T07:47:15.879Z,20.58
2018-05-09T07:48:15.844Z,20.61
2018-05-09T07:49:15.876Z,20.63
2018-05-09T07:50:15.815Z,20.67
2018-05-09T07:51:15.860Z,20.68
2018-05-09T07:52:15.830Z,20.69
2018-05-09T07:53:16.096Z,20.72
2018-05-09T07:54:15.844Z,20.73
2018-05-09T07:55:15.863Z,20.74
2018-05-09T07:56:15.821Z,20.78
2018-05-09T07:57:15.856Z,20.82
2018-05-09T07:58:15.826Z,20.87
2018-05-09T07:59:16.570Z,20.87
2018-05-09T08:00:15.826Z,20.87
2018-05-09T08:01:15.855Z,20.91
2018-05-09T08:02:15.868Z,20.88
2018-05-09T08:03:15.831Z,20.87
2018-05-09T08:04:15.835Z,20.88
2018-05-09T08:05:15.871Z,20.91
2018-05-09T08:06:15.838Z,20.94
2018-05-09T08:07:15.834Z,20.97
2018-05-09T08:08:15.836Z,20.89
2018-05-09T08:09:15.898Z,20.93
2018-05-09T08:10:15.857Z,20.94
2018-05-09T08:11:15.867Z,20.95
2018-05-09T08:12:16.184Z,20.97
2018-05-09T08:13:15.854Z,20.94
2018-05-09T08:14:15.829Z,20.94
2018-05-09T08:15:15.832Z,20.94
2018-05-09T08:16:15.885Z,20.92
2018-05-09T08:17:15.852Z,20.86
2018-05-09T08:18:15.838Z,20.87
2018-05-09T08:19:15.865Z,20.81
2018-05-09T08:20:15.936Z,20.87
2018-05-09T08:21:15.843Z,20.87
2018-05-09T08:22:15.905Z,20.91
2018-05-09T08:23:15.887Z,20.97
2018-05-09T08:24:15.882Z,20.91
2018-05-09T08:25:15.882Z,20.93
2018-05-09T08:26:15.869Z,20.89
2018-05-09T08:27:15.905Z,20.91
2018-05-09T08:28:15.950Z,20.97
2018-05-09T08:29:15.898Z,20.99
2018-05-09T08:30:16.392Z,21.05
2018-05-09T08:31:15.935Z,21.09
2018-05-09T08:32:15.927Z,21.1
2018-05-09T08:33:16.020Z,21.11
2018-05-09T08:34:15.899Z,21.16
2018-05-09T08:35:15.906Z,21.18
2018-05-09T08:36:16.801Z,21.17
2018-05-09T08:37:15.875Z,21.19
2018-05-09T08:38:15.874Z,21.22
2018-05-09T08:39:15.880Z,21.24
2018-05-09T08:40:15.873Z,21.27
2018-05-09T08:41:15.889Z,21.29
2018-05-09T08:42:15.897Z,21.31
2018-05-09T08:43:17.250Z,21.29
2018-05-09T08:44:15.944Z,21.33
2018-05-09T08:45:15.867Z,21.34
2018-05-09T08:46:16.042Z,21.32
2018-05-09T08:47:15.862Z,21.3
2018-05-09T08:48:15.870Z,21.27
2018-05-09T08:49:16.641Z,21.26
2018-05-09T08:50:15.900Z,21.2
2018-05-09T08:51:15.860Z,21.18
2018-05-09T08:52:15.909Z,21.2
2018-05-09T08:53:15.943Z,21.08
2018-05-09T08:54:15.857Z,21.16
2018-05-09T08:55:15.978Z,21.2
2018-05-09T08:56:15.896Z,21.15
2018-05-09T08:57:15.864Z,21.17
2018-05-09T08:58:15.927Z,21.23
2018-05-09T08:59:15.902Z,21.26
2018-05-09T09:00:15.997Z,21.31
2018-05-09T09:01:15.882Z,21.34
2018-05-09T09:02:15.892Z,21.33
2018-05-09T09:03:15.908Z,21.42
2018-05-09T09:04:16.568Z,21.42
2018-05-09T09:05:15.911Z,21.42
2018-05-09T09:06:15.906Z,21.47
2018-05-09T09:07:15.896Z,21.49
2018-05-09T09:08:15.922Z,21.57
2018-05-09T09:09:15.950Z,21.62
2018-05-09T09:10:15.889Z,21.64
2018-05-09T09:11:15.950Z,21.67
2018-05-09T09:12:15.958Z,21.67
2018-05-09T09:13:15.907Z,21.73
2018-05-09T09:14:15.883Z,21.66
2018-05-09T09:15:16.574Z,21.66
2018-05-09T09:16:15.965Z,21.71
2018-05-09T09:17:15.891Z,21.75
2018-05-09T09:18:15.944Z,21.8
2018-05-09T09:19:16.014Z,21.83
2018-05-09T09:20:15.896Z,21.86
2018-05-09T09:21:15.889Z,21.85
2018-05-09T09:22:15.897Z,21.89
2018-05-09T09:23:15.934Z,21.92
2018-05-09T09:24:15.878Z,21.95
2018-05-09T09:25:15.874Z,22
2018-05-09T09:26:15.935Z,22.01
2018-05-09T09:27:15.891Z,22.03
2018-05-09T09:28:15.953Z,21.97
2018-05-09T09:29:16.877Z,21.99
2018-05-09T09:30:15.888Z,22.03
2018-05-09T09:31:15.884Z,22.03
2018-05-09T09:32:15.900Z,22.08
2018-05-09T09:33:15.878Z,22.14
2018-05-09T09:34:15.860Z,22.19
2018-05-09T09:35:15.890Z,22.22
2018-05-09T09:36:15.932Z,22.24
2018-05-09T09:37:15.870Z,22.28
2018-05-09T09:38:15.936Z,22.37
2018-05-09T09:39:15.885Z,22.42
2018-05-09T09:40:15.918Z,22.48
2018-05-09T09:41:15.890Z,22.52
2018-05-09T09:42:15.897Z,22.57
2018-05-09T09:43:15.892Z,22.61
2018-05-09T09:44:15.958Z,22.66
2018-05-09T09:45:15.901Z,22.68
2018-05-09T09:46:15.888Z,22.69
2018-05-09T09:47:15.865Z,22.76
2018-05-09T09:48:15.899Z,22.8
2018-05-09T09:49:15.904Z,22.72
2018-05-09T09:50:15.912Z,22.63
2018-05-09T09:51:15.883Z,22.66
2018-05-09T09:52:15.880Z,22.61
2018-05-09T09:53:16.014Z,22.57
2018-05-09T09:54:15.954Z,22.57
2018-05-09T09:55:15.905Z,22.56
2018-05-09T09:56:15.902Z,22.64
2018-05-09T09:57:15.883Z,22.58
2018-05-09T09:58:15.884Z,22.59
2018-05-09T09:59:15.881Z,22.63
2018-05-09T10:00:15.967Z,22.61
2018-05-09T10:01:15.946Z,22.67
2018-05-09T10:02:15.931Z,22.74
2018-05-09T10:03:15.915Z,22.81
2018-05-09T10:04:15.930Z,22.87
2018-05-09T10:05:15.952Z,22.91
2018-05-09T10:06:15.937Z,22.97
2018-05-09T10:07:15.888Z,23.07
2018-05-09T10:08:15.917Z,23.16
2018-05-09T10:09:15.932Z,23.23
2018-05-09T10:10:16.094Z,23.29
2018-05-09T10:11:15.928Z,23.35
2018-05-09T10:12:15.943Z,23.33
2018-05-09T10:13:15.909Z,23.33
2018-05-09T10:14:15.914Z,23.37
2018-05-09T10:15:15.963Z,23.42
2018-05-09T10:16:16.662Z,23.47
2018-05-09T10:17:15.974Z,23.52
2018-05-09T10:18:15.896Z,23.57
2018-05-09T10:19:16.309Z,23.62
2018-05-09T10:20:15.937Z,23.7
2018-05-09T10:21:15.925Z,23.77
2018-05-09T10:22:15.908Z,23.8
2018-05-09T10:23:16.695Z,23.82
2018-05-09T10:24:16.084Z,23.85
2018-05-09T10:25:15.949Z,23.88
2018-05-09T10:26:15.956Z,23.91
2018-05-09T10:27:15.896Z,23.91
2018-05-09T10:28:15.914Z,23.92
2018-05-09T10:29:15.956Z,23.97
2018-05-09T10:30:15.996Z,23.98
2018-05-09T10:31:15.919Z,23.99
2018-05-09T10:32:15.908Z,23.97
2018-05-09T10:33:15.970Z,24
2018-05-09T10:34:15.922Z,24.06
2018-05-09T10:35:16.005Z,24.08
2018-05-09T10:36:16.095Z,24.1
2018-05-09T10:37:15.931Z,24.08
2018-05-09T10:38:15.950Z,23.96
2018-05-09T10:39:15.931Z,23.96
2018-05-09T10:40:15.982Z,24.03
2018-05-09T10:41:15.943Z,24.07
2018-05-09T10:42:15.940Z,24.08
2018-05-09T10:43:15.947Z,23.95
2018-05-09T10:44:15.920Z,23.99
2018-05-09T10:45:15.934Z,24.08
2018-05-09T10:46:15.912Z,23.95
2018-05-09T10:47:15.941Z,23.95
2018-05-09T10:48:15.920Z,24
2018-05-09T10:49:15.983Z,24
2018-05-09T10:50:15.937Z,23.93
2018-05-09T10:51:15.944Z,23.91
2018-05-09T10:52:15.960Z,23.98
2018-05-09T10:53:16.086Z,24.06
2018-05-09T10:54:16.005Z,24.14
2018-05-09T10:55:15.954Z,24.24
2018-05-09T10:56:15.934Z,24.27
2018-05-09T10:57:16.613Z,24.31
2018-05-09T10:58:16.033Z,24.38
2018-05-09T10:59:15.956Z,24.42
2018-05-09T11:00:15.935Z,24.45
2018-05-09T11:01:16.123Z,24.47
2018-05-09T11:02:16.084Z,24.45
2018-05-09T11:03:16.193Z,24.5
2018-05-09T11:04:15.970Z,24.57
2018-05-09T11:05:16.007Z,24.62
2018-05-09T11:06:15.929Z,24.68
2018-05-09T11:07:16.026Z,24.75
2018-05-09T11:08:16.155Z,24.8
2018-05-09T11:09:15.963Z,24.88
2018-05-09T11:10:15.964Z,24.94
2018-05-09T11:11:16.101Z,24.96
2018-05-09T11:12:16.067Z,24.99
2018-05-09T11:13:16.088Z,25.04
2018-05-09T11:14:16.744Z,25.07
2018-05-09T11:15:16.106Z,25.11
2018-05-09T11:16:16.148Z,25.12
2018-05-09T11:17:16.011Z,25.18
2018-05-09T11:18:16.269Z,25.23
2018-05-09T11:19:16.012Z,25.24
2018-05-09T11:20:16.038Z,25.27
2018-05-09T11:21:15.979Z,25.3
2018-05-09T11:22:16.066Z,25.31
2018-05-09T11:23:15.993Z,25.36
2018-05-09T11:24:16.692Z,25.45
2018-05-09T11:25:16.150Z,25.51
2018-05-09T11:26:15.989Z,25.56
2018-05-09T11:27:16.133Z,25.53
2018-05-09T11:28:16.142Z,25.57
2018-05-09T11:29:16.154Z,25.63
2018-05-09T11:30:16.004Z,25.72
2018-05-09T11:31:16.494Z,25.7
2018-05-09T11:32:16.161Z,25.67
2018-05-09T11:33:16.124Z,25.64
2018-05-09T11:34:15.953Z,25.61
2018-05-09T11:35:15.987Z,25.6
2018-05-09T11:36:16.011Z,25.64
2018-05-09T11:37:16.024Z,25.7
2018-05-09T11:38:16.108Z,25.76
2018-05-09T11:39:16.128Z,25.85
2018-05-09T11:40:15.938Z,25.82
2018-05-09T11:41:16.080Z,25.79
2018-05-09T11:42:16.064Z,25.66
2018-05-09T11:43:16.013Z,25.72
2018-05-09T11:44:15.966Z,25.81
2018-05-09T11:45:15.968Z,25.81
2018-05-09T11:46:15.981Z,25.72
2018-05-09T11:47:16.042Z,25.72
2018-05-09T11:48:15.981Z,25.7
2018-05-09T11:49:16.048Z,25.43
2018-05-09T11:50:15.987Z,25.27
2018-05-09T11:51:16.000Z,25.23
2018-05-09T11:52:15.954Z,25.07
2018-05-09T11:53:18.021Z,25.08
2018-05-09T11:54:15.980Z,25.23
2018-05-09T11:55:16.003Z,25.18
2018-05-09T11:56:16.065Z,25.26
2018-05-09T11:57:16.038Z,25.23
2018-05-09T11:58:16.163Z,25.32
2018-05-09T11:59:16.011Z,25.49
2018-05-09T12:00:16.095Z,25.41
2018-05-09T12:01:16.027Z,25.4
2018-05-09T12:02:16.765Z,25.23
2018-05-09T12:03:16.074Z,25.14
2018-05-09T12:04:15.987Z,25.2
2018-05-09T12:05:16.099Z,25.33
2018-05-09T12:06:16.025Z,25.42
2018-05-09T12:07:16.009Z,25.51
2018-05-09T12:08:16.188Z,25.51
2018-05-09T12:09:16.072Z,25.56
2018-05-09T12:10:16.582Z,25.58
2018-05-09T12:11:16.009Z,25.56
2018-05-09T12:12:16.116Z,25.47
2018-05-09T12:13:15.997Z,25.54
2018-05-09T12:14:16.083Z,25.56
2018-05-09T12:15:16.002Z,25.61
2018-05-09T12:16:15.996Z,25.63
2018-05-09T12:17:16.044Z,25.6
2018-05-09T12:18:16.003Z,25.53
2018-05-09T12:19:16.121Z,25.55
2018-05-09T12:20:15.992Z,25.49
2018-05-09T12:21:16.038Z,25.39
2018-05-09T12:22:16.176Z,25.46
2018-05-09T12:23:15.980Z,25.5
2018-05-09T12:24:16.005Z,25.62
2018-05-09T12:25:16.012Z,25.66
2018-05-09T12:26:15.979Z,25.73
2018-05-09T12:27:15.984Z,25.82
2018-05-09T12:28:16.003Z,25.9
2018-05-09T12:29:16.194Z,25.97
2018-05-09T12:30:16.127Z,26.08
2018-05-09T12:31:16.075Z,26.15
2018-05-09T12:32:16.068Z,26.22
2018-05-09T12:33:16.119Z,26.25
2018-05-09T12:34:16.029Z,26.34
2018-05-09T12:35:16.083Z,26.32
2018-05-09T12:36:16.033Z,26.29
2018-05-09T12:37:16.001Z,26.32
2018-05-09T12:38:16.078Z,26.38
2018-05-09T12:39:16.023Z,26.32
2018-05-09T12:40:16.306Z,26.36
2018-05-09T12:41:16.162Z,26.3
2018-05-09T12:42:16.096Z,26.12
2018-05-09T12:43:16.000Z,26.19
2018-05-09T12:44:16.065Z,26.14
2018-05-09T12:45:16.124Z,26.12
2018-05-09T12:46:16.173Z,26.15
2018-05-09T12:47:16.170Z,26.04
2018-05-09T12:48:16.088Z,25.96
2018-05-09T12:49:16.045Z,26.06
2018-05-09T12:50:16.027Z,26.1
2018-05-09T12:51:16.001Z,26.18
2018-05-09T12:52:16.004Z,26.22
2018-05-09T12:53:16.075Z,26.31
2018-05-09T12:54:16.059Z,26.38
2018-05-09T12:55:16.040Z,26.39